Blackwater, Mississippi
Current Conditions -  °F | °C
As of 9:55 PM on Sunday 23 Nov 2014 (Local Time) from KUOX Reporting Station
Clear Clear  
Wind Chill: 57°   Ceiling: Unl
Heat Index: 57°   Visibility: 10mi
Dew Point: 55°   Wind: 14mph
Humidity: 94%   Direction: 170°S
Pressure: 29.53"   Gusts: 21mph
Location:  34.6374°N, 89.4672°W
Report Text: KUOX 240355Z AUTO 17012G18KT 10SM CLR 14/13 A2953 RMK AO2 PWINO PNO
Loading
Personal Weather Stations






























Interactive Weather Map New forecast layout! Learn more

10-Day Weather Forecast

Advertisements
Track Severe Weather on mobile